Flight Track Log - Related Links

Times and Time Zones

All times are in EDT time to prevent confusion due to time zone crossing. See the SWA8500 flight status page for this flight to view local times or setup timezone preferences in your user account.


Time Position Orientation Groundspeed Altitude Reporting Facility
EDT Latitude Longitude Course Direction KTS MPH feet Rate Location/Type
Wed 08:33:51 PM 47.9739 -122.2156 154° Southeast 245 282 5,000  Level Seattle Center
Wed 08:34:46 PM 47.9222 -122.1783 154° Southeast 230 265 5,600 1,914 Climbing Seattle Center
Wed 08:35:47 PM 47.8531 -122.1342 157° South 287 330 8,700 2,979 Climbing Seattle Center
Wed 08:37:09 PM 47.7400 -122.1211 176° South 320 368 12,700 3,021 Climbing Seattle Center
Wed 08:38:10 PM 47.6328 -122.1094 176° South 362 417 15,900 2,607 Climbing Seattle Center
Wed 08:39:11 PM 47.5447 -122.0917 172° South 378 435 18,000 2,410 Climbing Seattle Center
Wed 08:40:12 PM 47.4486 -122.0183 153° Southeast 390 449 20,800 2,754 Climbing Seattle Center
Wed 08:41:13 PM 47.3317 -121.9250 152° Southeast 399 459 23,600 2,557 Climbing Seattle Center
Wed 08:42:14 PM 47.2336 -121.8500 153° Southeast 401 461 26,000 2,803 Climbing Seattle Center
Wed 08:43:15 PM 47.1378 -121.7753 152° Southeast 397 457 29,300 2,754 Climbing Seattle Center
Wed 08:44:16 PM 47.0525 -121.7081 152° Southeast 359 413 31,600 1,672 Climbing Seattle Center
Wed 08:45:17 PM 46.9631 -121.6397 152° Southeast 363 418 32,700 1,131 Climbing Seattle Center
Wed 08:46:18 PM 46.8656 -121.5639 152° Southeast 383 441 33,900 1,180 Climbing Seattle Center
Wed 08:47:19 PM 46.7681 -121.4886 152° Southeast 395 455 35,100 1,279 Climbing Seattle Center
Wed 08:48:20 PM 46.6678 -121.4117 152° Southeast 405 466 36,500 934 Climbing Seattle Center
Wed 08:49:21 PM 46.5667 -121.3336 152° Southeast 411 473 37,000 246 Climbing Seattle Center
Wed 08:50:22 PM 46.4633 -121.2553 152° Southeast 418 481 37,000  Level Seattle Center
Wed 08:51:23 PM 46.3600 -121.1739 151° Southeast 423 487 37,000  Level Seattle Center
Wed 08:52:24 PM 46.2556 -121.0972 153° Southeast 422 486 37,000  Level Seattle Center
Wed 08:53:25 PM 46.1300 -121.0017 152° Southeast 426 490 37,000  Level Seattle Center
Wed 08:54:26 PM 46.0258 -120.9239 153° Southeast 425 489 37,000  Level Seattle Center
Wed 08:55:27 PM 45.9203 -120.8444 152° Southeast 428 493 37,000  Level Seattle Center
Wed 08:56:28 PM 45.8150 -120.7681 153° Southeast 427 491 37,000  Level Seattle Center
Wed 08:58:30 PM 45.6039 -120.6125 153° Southeast 428 493 37,000  Level Seattle Center
Wed 08:59:31 PM 45.4975 -120.5339 153° Southeast 431 496 37,000  Level Seattle Center
Wed 09:00:32 PM 45.3914 -120.4561 153° Southeast 430 495 37,000  Level Seattle Center
Wed 09:01:33 PM 45.2844 -120.3792 153° Southeast 432 497 37,000  Level Seattle Center
Wed 09:02:34 PM 45.1761 -120.3011 153° Southeast 437 503 37,000  Level Seattle Center
Wed 09:03:35 PM 45.0694 -120.2233 153° Southeast 435 501 37,000  Level Seattle Center
Wed 09:04:36 PM 44.9425 -120.1322 153° Southeast 436 502 37,000  Level Seattle Center
Wed 09:05:37 PM 44.8372 -120.0567 153° Southeast 437 503 37,000  Level Seattle Center
Wed 09:06:38 PM 44.7294 -119.9808 153° Southeast 439 505 37,000  Level Seattle Center
Wed 09:07:39 PM 44.6208 -119.9036 153° Southeast 440 506 37,000  Level Seattle Center
Wed 09:08:40 PM 44.5111 -119.8258 153° Southeast 443 510 37,000  Level Seattle Center
Wed 09:09:41 PM 44.4019 -119.7483 153° Southeast 442 509 37,000  Level Seattle Center
Wed 09:10:42 PM 44.2922 -119.6706 153° Southeast 443 510 37,000  Level Seattle Center
Wed 09:11:43 PM 44.1797 -119.5983 155° Southeast 444 511 37,000  Level Seattle Center
Wed 09:12:43 PM 44.0461 -119.5042 153° Southeast 448 516 37,000  Level Seattle Center
Wed 09:13:44 PM 43.9339 -119.4281 154° Southeast 450 518 37,000  Level Seattle Center
Wed 09:14:45 PM 43.8222 -119.3503 153° Southeast 449 517 37,000  Level Seattle Center
Wed 09:15:46 PM 43.7094 -119.2728 154° Southeast 451 519 37,000  Level Seattle Center
Wed 09:16:47 PM 43.5964 -119.1967 154° Southeast 452 520 37,000  Level Seattle Center
Wed 09:17:48 PM 43.4844 -119.1192 153° Southeast 450 518 37,000  Level Seattle Center
Wed 09:18:49 PM 43.3700 -119.0425 154° Southeast 456 525 37,000  Level Seattle Center
Wed 09:19:50 PM 43.2586 -118.9681 154° Southeast 448 516 37,000  Level Seattle Center
Wed 09:20:51 PM 43.1464 -118.8933 154° Southeast 447 514 37,000  Level Seattle Center
Wed 09:21:44 PM 43.0353 -118.8131 152° Southeast 450 518 37,000  Level Salt Lake Center
Wed 09:22:46 PM 42.9231 -118.7383 154° Southeast 450 518 37,000  Level Salt Lake Center
Wed 09:23:47 PM 42.8108 -118.6628 154° Southeast 450 518 37,000  Level Salt Lake Center
Wed 09:24:49 PM 42.6983 -118.5867 154° Southeast 451 519 37,000  Level Salt Lake Center
Wed 09:25:51 PM 42.5853 -118.5136 155° Southeast 451 519 37,000  Level Salt Lake Center
Wed 09:26:52 PM 42.4706 -118.4394 155° Southeast 456 525 37,000  Level Salt Lake Center
Wed 09:27:54 PM 42.3472 -118.3625 155° Southeast 459 528 37,000  Level Salt Lake Center
Wed 09:28:56 PM 42.2175 -118.2769 154° Southeast 462 532 37,000  Level Salt Lake Center
Wed 09:29:57 PM 42.1225 -118.1692 140° Southeast 462 532 37,000  Level Salt Lake Center
Wed 09:30:59 PM 42.0150 -118.0325 137° Southeast 478 550 37,000  Level Salt Lake Center
Wed 09:32:01 PM 41.9239 -117.9211 138° Southeast 467 537 37,000  Level Salt Lake Center
Wed 09:33:02 PM 41.8322 -117.8133 139° Southeast 459 528 37,000  Level Salt Lake Center
Wed 09:34:04 PM 41.7253 -117.6786 137° Southeast 469 540 37,000  Level Salt Lake Center
Wed 09:35:06 PM 41.6342 -117.5694 138° Southeast 463 533 37,000  Level Salt Lake Center
Wed 09:36:07 PM 41.5256 -117.4403 138° Southeast 465 535 37,000  Level Salt Lake Center
Wed 09:37:10 PM 41.4331 -117.3297 138° Southeast 467 537 37,000  Level Salt Lake Center
Wed 09:38:11 PM 41.3247 -117.1986 138° Southeast 469 540 37,000  Level Salt Lake Center
Wed 09:39:13 PM 41.2319 -117.0881 138° Southeast 468 539 37,000  Level Salt Lake Center
Wed 09:40:14 PM 41.1369 -116.9775 139° Southeast 470 541 37,000  Level Salt Lake Center
Wed 09:41:16 PM 41.0286 -116.8486 138° Southeast 468 539 37,000  Level Salt Lake Center
Wed 09:42:18 PM 40.9356 -116.7389 138° Southeast 466 536 37,000  Level Salt Lake Center
Wed 09:43:19 PM 40.8253 -116.6094 138° Southeast 471 542 37,000  Level Salt Lake Center
Wed 09:44:21 PM 40.7317 -116.4989 138° Southeast 468 539 37,000  Level Salt Lake Center
Wed 09:45:23 PM 40.6356 -116.3886 139° Southeast 472 543 37,000  Level Salt Lake Center
Wed 09:46:25 PM 40.5244 -116.2614 139° Southeast 472 543 37,000  Level Salt Lake Center
Wed 09:47:26 PM 40.4306 -116.1511 138° Southeast 470 541 37,000  Level Salt Lake Center
Wed 09:48:28 PM 40.3197 -116.0247 139° Southeast 470 541 37,000  Level Salt Lake Center
Wed 09:49:30 PM 40.2258 -115.9189 139° Southeast 464 534 37,000  Level Salt Lake Center
Wed 09:50:31 PM 40.1342 -115.8100 138° Southeast 463 533 37,000  Level Salt Lake Center
Wed 09:51:33 PM 40.0242 -115.6856 139° Southeast 466 536 37,000  Level Salt Lake Center
Wed 09:52:35 PM 39.9275 -115.5794 140° Southeast 471 542 37,000  Level Salt Lake Center
Wed 09:53:36 PM 39.8164 -115.4567 140° Southeast 467 537 37,000  Level Salt Lake Center
Wed 09:54:38 PM 39.7267 -115.3506 138° Southeast 462 532 37,000  Level Salt Lake Center
Wed 09:55:40 PM 39.6319 -115.2461 140° Southeast 464 534 37,000  Level Salt Lake Center
Wed 09:56:41 PM 39.5222 -115.1242 139° Southeast 465 535 37,000  Level Salt Lake Center
Wed 09:57:43 PM 39.4275 -115.0197 140° Southeast 467 537 37,000  Level Salt Lake Center
Wed 09:58:44 PM 39.3144 -114.9006 141° Southeast 468 539 37,000  Level Salt Lake Center
Wed 09:59:46 PM 39.2197 -114.7975 140° Southeast 465 535 37,000  Level Salt Lake Center
Wed 10:00:48 PM 39.1119 -114.6744 138° Southeast 460 529 37,000  Level Salt Lake Center
Wed 10:01:49 PM 39.0150 -114.5692 140° Southeast 457 526 37,000  Level Salt Lake Center
Wed 10:02:51 PM 38.9192 -114.4661 140° Southeast 452 520 37,000  Level Salt Lake Center
Wed 10:03:53 PM 38.8242 -114.3614 139° Southeast 451 519 37,000  Level Salt Lake Center
Wed 10:04:54 PM 38.7281 -114.2594 140° Southeast 449 517 37,000  Level Salt Lake Center
Wed 10:05:56 PM 38.6333 -114.1581 140° Southeast 445 512 37,000  Level Salt Lake Center
Wed 10:06:58 PM 38.5386 -114.0572 140° Southeast 443 510 37,000  Level Salt Lake Center
Wed 10:07:59 PM 38.4256 -113.9369 140° Southeast 443 510 37,000  Level Salt Lake Center
Wed 10:09:01 PM 38.3300 -113.8364 140° Southeast 446 513 37,000  Level Salt Lake Center
Wed 10:10:03 PM 38.2350 -113.7353 140° Southeast 446 513 37,000  Level Salt Lake Center
Wed 10:11:04 PM 38.1386 -113.6361 141° Southeast 446 513 37,000  Level Salt Lake Center
Wed 10:12:06 PM 38.0419 -113.5358 141° Southeast 448 516 37,000  Level Salt Lake Center
Wed 10:13:08 PM 37.9464 -113.4356 140° Southeast 448 516 37,000  Level Salt Lake Center
Wed 10:14:09 PM 37.8411 -113.3686 153° Southeast 431 496 37,000  Level Salt Lake Center
Wed 10:15:11 PM 37.7075 -113.3303 167° South 415 478 37,000  Level Salt Lake Center
Wed 10:16:12 PM 37.5972 -113.2978 167° South 412 474 37,000  Level Salt Lake Center
Wed 10:17:14 PM 37.4864 -113.2647 167° South 413 475 37,000 -339 Level Salt Lake Center
Wed 10:18:16 PM 37.3783 -113.2331 167° South 407 468 36,300 -808 Descending Salt Lake Center
Wed 10:18:58 PM 37.2914 -113.2067 166° South 404 465 35,600 -923 Descending Los Angeles Center
Wed 10:20:00 PM 37.1786 -113.1736 167° South 417 480 34,700 -878 Descending Los Angeles Center
Wed 10:21:01 PM 37.0642 -113.1397 167° South 423 487 33,800 -829 Descending Los Angeles Center
Wed 10:22:03 PM 36.9483 -113.1064 167° South 427 491 33,000 -387 Descending Los Angeles Center
Wed 10:23:05 PM 36.8325 -113.0731 167° South 428 493 33,000  Level Los Angeles Center
Wed 10:24:07 PM 36.7161 -113.0397 167° South 429 494 33,000 -89 Level Los Angeles Center
Wed 10:25:20 PM 36.5764 -112.9994 167° South 431 496 32,800 -574 Descending Los Angeles Center
Wed 10:26:23 PM 36.4333 -112.9608 168° South 438 504 31,700 -1,016 Descending Los Angeles Center
Wed 10:27:24 PM 36.3133 -112.9261 167° South 442 509 30,700 -1,024 Descending Los Angeles Center
Wed 10:28:26 PM 36.1972 -112.8928 167° South 432 497 29,600 -823 Descending Los Angeles Center
Wed 10:29:28 PM 36.0833 -112.8614 167° South 421 484 29,000 -290 Descending Los Angeles Center
Wed 10:30:30 PM 35.9714 -112.8292 167° South 414 476 29,000  Level Los Angeles Center
Wed 10:31:32 PM 35.8503 -112.7958 167° South 401 461 29,000  Level Los Angeles Center
Wed 10:32:34 PM 35.7417 -112.7664 168° South 399 459 29,000  Level Los Angeles Center
Wed 10:33:35 PM 35.6203 -112.7314 167° South 411 473 29,000  Level Los Angeles Center
Wed 10:34:37 PM 35.5006 -112.6978 167° South 435 501 29,000  Level Los Angeles Center
Wed 10:35:39 PM 35.3783 -112.6644 167° South 447 514 29,000  Level Los Angeles Center
Wed 10:36:19 PM 35.2897 -112.6411 168° South 442 509 29,000  Level Albuquerque Center
Wed 10:37:20 PM 35.1736 -112.6086 167° South 430 495 29,000  Level Albuquerque Center
Wed 10:38:22 PM 35.0594 -112.5775 167° South 422 486 29,000  Level Albuquerque Center
Wed 10:39:23 PM 34.9464 -112.5469 168° South 418 481 29,000 -49 Level Albuquerque Center
Wed 10:40:25 PM 34.8356 -112.5175 168° South 412 474 28,900 -1,707 Descending Albuquerque Center
Wed 10:41:26 PM 34.7233 -112.4853 167° South 414 476 25,500 -1,918 Descending Albuquerque Center
Wed 10:42:27 PM 34.6289 -112.4100 147° Southeast 410 472 25,000 -1,610 Descending Albuquerque Center
Wed 10:43:29 PM 34.5322 -112.3144 141° Southeast 404 465 22,200 -2,439 Descending Albuquerque Center
Wed 10:44:30 PM 34.4472 -112.2333 142° Southeast 395 455 20,000 -1,377 Descending Albuquerque Center
Wed 10:45:31 PM 34.3500 -112.2042 166° South 366 421 19,400 -1,659 Descending Albuquerque Center
Wed 10:46:33 PM 34.2564 -112.1836 170° South 350 403 16,600 -2,878 Descending Albuquerque Center
Wed 10:47:34 PM 34.1586 -112.1550 166° South 361 415 13,500 -1,902 Descending Albuquerque Center
Wed 10:48:36 PM 34.0475 -112.1258 168° South 344 396 12,700 -878 Descending Albuquerque Center
Wed 10:49:37 PM 33.9653 -112.1050 168° South 309 356 11,700 -984 Descending Albuquerque Center
Wed 10:50:38 PM 33.8803 -112.0839 168° South 314 361 10,700 -878 Descending Albuquerque Center
Wed 10:51:40 PM 33.8019 -112.0650 169° South 293 337 9,900 -341 Descending Albuquerque Center
Wed 10:52:41 PM 33.7294 -112.0469 168° South 271 312 10,000 -98 Climbing Albuquerque Center
Wed 10:53:42 PM 33.6542 -112.0350 172° South 275 316 9,700 -634 Descending Albuquerque Center
Wed 10:54:44 PM 33.5664 -112.0119 168° South 277 319 8,700 -942 Descending Albuquerque Center
Wed 10:55:43 PM 33.5333 -111.9333 117° Southeast 289 333 7,800 -958 Descending Phoenix TRACON
Wed 10:56:43 PM 33.5333 -111.8500 90° East 273 314 6,800 -800 Descending Phoenix TRACON
Wed 10:57:43 PM 33.4833 -111.8000 140° Southeast 206 237 6,200 -1,100 Descending Phoenix TRACON
Wed 10:58:43 PM 33.4500 -111.8333 220° Southwest 171 197 4,600 -1,537 Descending Phoenix TRACON
Wed 10:59:44 PM 33.4333 -111.8833 248° West 162 186 3,100 -1,190 Descending Phoenix TRACON
Wed 11:00:44 PM 33.4333 -111.9167 270° West 134 154 2,200 -762 Descending Phoenix TRACON
Wed 11:01:50 PM 33.4333 -111.9667 270° West 121 139 1,500 -636 Descending Phoenix TRACON

Login

Don't have an account? Register now (free) for customized features, flight alerts, and more!